FW3594 Vancouver CA current weather conditions

sailwx.info

Wind from 066 at 1 knots gusting 3

Air temperature 16.7° C
Dewpoint 12.0° C

Last reported at 2020-Jul-08 04:01 UTC.
Time now 2020-Jul-08 04:47 UTC

Location: N 49°14' W 123°11'.
View on Google Maps.

See reports from other nearby stations

  
Tides and Currents Weather Stations Pressure Air Temp Water Temp Dewpoint Dewpoint Depression Visibility Wind Speed Wind Dir Waves Ship Positions
date/time (UTC)wind fromknots sea level pressurealtimeterstation pressurevisibilityair tempwater tempwave heightnotes
2020-Jul-08 04:01 066 1 gusting 3 16.7
2020-Jul-08 03:51 068 17.2
2020-Jul-08 03:41 087 0 gusting 2 17.2
2020-Jul-08 03:31 091 0 gusting 2 17.2
2020-Jul-08 03:21 071 17.8
2020-Jul-08 03:11 090 0 gusting 2 17.2
2020-Jul-08 03:01 007 0 gusting 2 17.8
2020-Jul-08 02:51 020 0 gusting 3 17.8
2020-Jul-08 02:41 012 18.3
2020-Jul-08 02:31 264 18.3
2020-Jul-08 02:21 303 18.3
2020-Jul-08 02:11 267 18.3
2020-Jul-08 02:01 239 0 gusting 2 18.3
2020-Jul-08 01:51 245 1 gusting 3 18.3
2020-Jul-08 01:41 264 18.3
2020-Jul-08 01:21 179 2 gusting 6 17.8
2020-Jul-08 01:11 207 1 gusting 4 18.3
2020-Jul-08 01:01 217 1 gusting 4 18.3
2020-Jul-08 00:51 204 1 gusting 4 18.9
2020-Jul-08 00:41 197 2 gusting 4 18.3
2020-Jul-08 00:31 193 1 gusting 5 17.8
2020-Jul-08 00:21 217 3 gusting 6 17.8
2020-Jul-08 00:11 198 3 gusting 6 17.8
2020-Jul-08 00:01 265 1 gusting 4 18.3
2020-Jul-07 23:51 258 3 gusting 6 17.8
2020-Jul-07 23:41 208 2 gusting 4 17.8
2020-Jul-07 23:31 267 2 gusting 6 17.8
2020-Jul-07 23:21 255 3 gusting 5 17.8
2020-Jul-07 23:11 232 3 gusting 5 18.3
2020-Jul-07 23:01 192 3 gusting 6 18.3
2020-Jul-07 22:51 223 2 gusting 6 18.3
2020-Jul-07 22:41 238 3 gusting 7 17.8
2020-Jul-07 22:31 238 2 gusting 6 18.3
2020-Jul-07 22:21 231 3 gusting 6 17.8
2020-Jul-07 22:11 211 3 gusting 6 18.3
2020-Jul-07 22:01 225 2 gusting 4 18.9
2020-Jul-07 21:51 202 5 gusting 7 18.9
2020-Jul-07 21:41 187 4 gusting 9 18.9
2020-Jul-07 21:31 221 3 gusting 6 18.9
2020-Jul-07 21:21 178 3 gusting 6 18.9
2020-Jul-07 21:01 181 3 gusting 6 18.9
2020-Jul-07 20:51 185 4 gusting 7 18.3
2020-Jul-07 20:41 179 3 gusting 6 18.9
2020-Jul-07 20:31 189 3 gusting 6 19.4
2020-Jul-07 20:21 174 3 gusting 7 19.4
2020-Jul-07 17:11 161 2 gusting 6 17.2
2020-Jul-07 17:01 172 2 gusting 6 16.7
2020-Jul-07 16:51 139 2 gusting 5 16.1
2020-Jul-07 16:41 120 3 gusting 6 16.1
2020-Jul-07 16:31 149 2 gusting 6 16.1
2020-Jul-07 16:21 120 2 gusting 6 15.6
2020-Jul-07 16:11 119 2 gusting 6 15.6
2020-Jul-07 16:01 117 2 gusting 5 14.4
2020-Jul-07 13:11 072 3 gusting 6 13.3
2020-Jul-07 13:01 080 3 gusting 6 13.3
2020-Jul-07 12:51 090 3 gusting 5 13.3
2020-Jul-07 12:41 075 3 gusting 7 13.9
2020-Jul-07 12:31 099 1 gusting 4 13.9
2020-Jul-07 12:21 093 1 gusting 4 13.9
2020-Jul-07 12:11 088 1 gusting 4 13.9
2020-Jul-07 12:01 084 2 gusting 6 13.9
2020-Jul-07 11:51 093 3 gusting 6 13.9
2020-Jul-07 11:41 092 3 gusting 6 13.9
2020-Jul-07 11:31 081 2 gusting 6 13.9
2020-Jul-07 11:21 081 2 gusting 5 14.4
2020-Jul-07 11:11 150 0 gusting 3 14.4
2020-Jul-07 11:01 106 0 gusting 4 14.4
2020-Jul-07 10:51 098 1 gusting 4 15.0
2020-Jul-07 10:41 079 1 gusting 4 15.0
2020-Jul-07 10:31 090 0 gusting 3 15.0
2020-Jul-07 10:21 096 0 gusting 3 15.0
2020-Jul-07 10:11 082 0 gusting 2 15.0
2020-Jul-07 10:01 075 15.0
2020-Jul-07 09:51 045 15.0
2020-Jul-07 09:41 178 15.0
2020-Jul-07 09:31 176 0 gusting 3 15.0
2020-Jul-07 09:21 169 2 gusting 3 15.0
2020-Jul-07 09:11 169 1 gusting 4 15.0
2020-Jul-07 09:01 178 0 gusting 4 15.0
2020-Jul-07 08:51 116 15.6
2020-Jul-07 08:41 114 15.6
2020-Jul-07 08:31 156 15.6
2020-Jul-07 08:21 177 15.6
2020-Jul-07 08:11 111 0 gusting 2 15.6
2020-Jul-07 08:01 113 15.6
2020-Jul-07 07:51 085 0 gusting 2 15.6
2020-Jul-07 07:41 106 15.6
2020-Jul-07 07:31 086 15.6
2020-Jul-07 07:21 072 15.6
2020-Jul-07 07:11 110 15.6
2020-Jul-07 07:01 111 15.6
2020-Jul-07 06:51 074 0 gusting 3 16.1
2020-Jul-07 06:41 072 0 gusting 5 16.1
2020-Jul-07 06:31 091 1 gusting 4 16.1
2020-Jul-07 06:21 101 0 gusting 2 16.1
2020-Jul-07 06:11 103 0 gusting 2 16.1
2020-Jul-07 06:01 099 0 gusting 2 16.1
2020-Jul-07 05:51 070 0 gusting 5 16.1
2020-Jul-07 05:41 026 16.1
2020-Jul-07 05:31 005 16.1
2020-Jul-07 05:21 064 16.1
2020-Jul-07 05:11 045 16.1
2020-Jul-07 05:01 055 16.1
2020-Jul-07 04:51 061 16.7
2020-Jul-07 04:41 068 16.7
2020-Jul-07 04:31 062 0 gusting 3 16.7
2020-Jul-07 04:21 146 17.2
2020-Jul-07 04:11 138 0 gusting 2 17.8
2020-Jul-07 04:01 356 17.8
2020-Jul-07 03:51 166 0 gusting 3 17.8
2020-Jul-07 03:41 304 17.8
2020-Jul-07 03:31 175 2 gusting 4 17.8
2020-Jul-07 03:21 171 2 gusting 4 17.8
2020-Jul-07 03:11 162 0 gusting 4 18.3
2020-Jul-07 03:01 178 3 gusting 4 18.3
2020-Jul-07 02:51 177 3 gusting 5 18.3
2020-Jul-07 02:41 178 2 gusting 6 18.9
2020-Jul-07 02:31 175 3 gusting 6 19.4
2020-Jul-07 02:21 181 3 gusting 5 19.4
2020-Jul-07 02:11 166 2 gusting 5 19.4
2020-Jul-07 02:01 175 3 gusting 6 20.0
2020-Jul-07 01:51 178 4 gusting 6 20.0
2020-Jul-07 01:41 187 3 gusting 6 20.0
2020-Jul-07 01:31 173 3 gusting 6 20.0
2020-Jul-07 01:21 180 4 gusting 6 20.0
2020-Jul-07 01:11 194 3 gusting 6 20.0
2020-Jul-07 01:01 179 2 gusting 6 21.1
2020-Jul-07 00:51 176 2 gusting 7 21.1
2020-Jul-07 00:41 183 2 gusting 7 21.7
2020-Jul-07 00:31 179 3 gusting 6 20.6
2020-Jul-07 00:21 178 2 gusting 6 21.7
2020-Jul-07 00:11 164 2 gusting 6 21.7
2020-Jul-07 00:01 179 3 gusting 7 21.1
2020-Jul-06 23:51 158 3 gusting 6 22.2
2020-Jul-06 23:41 138 2 gusting 6 21.1
2020-Jul-06 23:31 135 3 gusting 6 20.6
2020-Jul-06 23:21 171 4 gusting 6 20.0
2020-Jul-06 23:11 178 4 gusting 6 20.0
2020-Jul-06 23:01 169 4 gusting 7 18.9
2020-Jul-06 22:51 171 3 gusting 6 20.0
2020-Jul-06 22:41 170 4 gusting 7 20.0
2020-Jul-06 22:31 154 3 gusting 6 20.6
2020-Jul-06 22:21 155 3 gusting 7 21.7
2020-Jul-06 22:11 166 5 gusting 8 20.6
2020-Jul-06 22:01 184 2 gusting 5 21.7
2020-Jul-06 21:51 151 3 gusting 6 22.8
2020-Jul-06 21:41 169 4 gusting 6 21.7
2020-Jul-06 21:31 155 3 gusting 6 21.7
2020-Jul-06 21:21 168 4 gusting 8 21.7
2020-Jul-06 21:11 179 5 gusting 10 21.1
2020-Jul-06 21:01 176 5 gusting 9 20.6
2020-Jul-06 20:51 173 4 gusting 6 20.6
2020-Jul-06 20:41 178 5 gusting 12 20.6
2020-Jul-06 20:31 172 5 gusting 8 21.7
2020-Jul-06 20:21 178 5 gusting 8 20.6
2020-Jul-06 20:11 184 5 gusting 8 20.6
2020-Jul-06 20:01 156 4 gusting 7 20.6
2020-Jul-06 19:51 173 5 gusting 7 20.0
2020-Jul-06 19:41 175 3 gusting 7 21.7
2020-Jul-06 19:31 151 2 gusting 6 21.7
2020-Jul-06 19:21 176 5 gusting 8 20.6
2020-Jul-06 19:11 178 5 gusting 8 20.0
2020-Jul-06 19:01 174 4 gusting 7 20.0
2020-Jul-06 18:51 175 5 gusting 8 18.9
2020-Jul-06 18:41 180 4 gusting 8 20.0
2020-Jul-06 18:31 177 3 gusting 6 20.6
2020-Jul-06 18:21 155 3 gusting 6 21.1
2020-Jul-06 18:11 151 3 gusting 6 20.0
2020-Jul-06 18:01 134 1 gusting 3 18.9
2020-Jul-06 17:51 175 4 gusting 6 18.3
2020-Jul-06 17:41 165 2 gusting 6 18.3
2020-Jul-06 17:31 171 1 gusting 5 18.9
2020-Jul-06 17:21 176 2 gusting 5 18.3
2020-Jul-06 17:11 183 3 gusting 6 17.2
2020-Jul-06 17:01 170 2 gusting 5 17.8
2020-Jul-06 16:51 175 2 gusting 5 17.8
2020-Jul-06 16:41 179 1 gusting 6 17.8
2020-Jul-06 16:31 105 1 gusting 6 17.8
2020-Jul-06 16:21 160 2 gusting 6 17.8
2020-Jul-06 16:11 179 3 gusting 6 17.2
2020-Jul-06 16:01 161 2 gusting 5 16.7
2020-Jul-06 15:51 166 1 gusting 4 16.1
2020-Jul-06 15:41 175 0 gusting 4 16.1
2020-Jul-06 15:31 146 1 gusting 5 16.1
2020-Jul-06 15:21 122 2 gusting 5 15.6
2020-Jul-06 15:11 112 2 gusting 6 16.7
2020-Jul-06 15:01 090 0 gusting 4 16.7
2020-Jul-06 14:51 093 2 gusting 5 15.6
2020-Jul-06 14:41 078 1 gusting 4 16.1
2020-Jul-06 14:31 083 0 gusting 3 15.6
2020-Jul-06 14:21 077 0 gusting 4 15.0
2020-Jul-06 14:11 047 15.0
2020-Jul-06 14:01 094 0 gusting 3 14.4
2020-Jul-06 13:51 081 0 gusting 4 14.4
2020-Jul-06 13:41 080 13.9
2020-Jul-06 13:31 023 13.3
2020-Jul-06 13:21 046 0 gusting 3 13.3
2020-Jul-06 13:11 070 0 gusting 2 13.3
2020-Jul-06 13:01 074 1 gusting 3 12.8
2020-Jul-06 12:51 023 12.8
2020-Jul-06 12:41 076 12.8
2020-Jul-06 12:31 084 0 gusting 2 12.8
2020-Jul-06 12:21 085 0 gusting 2 12.8
2020-Jul-06 12:11 078 12.8
2020-Jul-06 12:01 090 12.8
2020-Jul-06 11:51 068 12.8
2020-Jul-06 11:41 158 12.8
2020-Jul-06 11:31 160 0 gusting 2 13.3
2020-Jul-06 11:21 066 0 gusting 3 12.8
2020-Jul-06 11:11 030 0 gusting 2 12.8
2020-Jul-06 11:01 024 1 gusting 3 12.8
2020-Jul-06 10:51 021 1 gusting 2 12.8
2020-Jul-06 10:41 018 1 gusting 2 12.8
2020-Jul-06 10:31 018 1 gusting 3 12.8
2020-Jul-06 10:21 019 1 gusting 3 13.3
2020-Jul-06 10:11 022 2 gusting 3 13.3
2020-Jul-06 10:01 020 2 gusting 3 13.3
2020-Jul-06 09:51 018 1 gusting 3 13.3
2020-Jul-06 09:41 013 2 gusting 3 13.3
2020-Jul-06 09:31 021 1 gusting 2 13.3
2020-Jul-06 09:21 020 1 gusting 2 13.3
2020-Jul-06 09:11 018 2 gusting 2 13.9
2020-Jul-06 09:01 011 1 gusting 3 13.9
2020-Jul-06 08:51 019 1 gusting 2 13.9
2020-Jul-06 08:41 053 1 gusting 4 13.9
2020-Jul-06 08:31 074 2 gusting 3 13.9
2020-Jul-06 08:21 059 0 gusting 4 13.9
2020-Jul-06 08:11 031 0 gusting 2 13.9
2020-Jul-06 08:01 017 1 gusting 2 13.9
2020-Jul-06 07:51 036 0 gusting 2 13.9
2020-Jul-06 07:41 020 1 gusting 2 13.9
2020-Jul-06 07:31 021 0 gusting 2 13.9
2020-Jul-06 07:21 038 0 gusting 3 14.4
2020-Jul-06 07:11 037 14.4
2020-Jul-06 07:01 026 0 gusting 2 14.4
2020-Jul-06 06:51 062 14.4
2020-Jul-06 06:41 050 0 gusting 2 14.4
2020-Jul-06 06:31 058 1 gusting 3 14.4
2020-Jul-06 06:21 090 14.4
2020-Jul-06 06:11 045 14.4
2020-Jul-06 06:01 023 15.0
2020-Jul-06 05:51 023 0 gusting 2 15.0
2020-Jul-06 05:41 023 15.0
2020-Jul-06 05:31 023 15.0
2020-Jul-06 05:21 360 15.0
2020-Jul-06 05:11 360 15.6
2020-Jul-06 05:01 023 15.6
2020-Jul-06 04:51 023 15.6
2020-Jul-06 04:41 023 16.1
2020-Jul-06 04:31 023 16.1
2020-Jul-06 04:21 023 16.7
2020-Jul-06 04:11 023 17.2
2020-Jul-06 04:01 225 17.8